sensor_id;sensor_type;location;lat;lon;timestamp;pressure;altitude;pressure_sealevel;temperature;humidity
67397;BME280;57728;50.448;18.824;2023-03-01T00:01:52;99076.22;;;0.59;54.65
67397;BME280;57728;50.448;18.824;2023-03-01T00:03:55;99074.38;;;0.59;54.62
67397;BME280;57728;50.448;18.824;2023-03-01T00:06:02;98960.03;;;-0.09;54.44
67397;BME280;57728;50.448;18.824;2023-03-01T00:08:04;98933.66;;;-0.43;54.62
67397;BME280;57728;50.448;18.824;2023-03-01T00:10:06;98915.06;;;-0.44;54.62
67397;BME280;57728;50.448;18.824;2023-03-01T00:12:09;98924.66;;;-0.42;54.74
67397;BME280;57728;50.448;18.824;2023-03-01T00:14:12;98884.63;;;-0.63;54.68
67397;BME280;57728;50.448;18.824;2023-03-01T00:16:17;99011.22;;;0.08;54.43
67397;BME280;57728;50.448;18.824;2023-03-01T00:18:22;99014.31;;;0.13;54.93
67397;BME280;57728;50.448;18.824;2023-03-01T00:20:24;98928.44;;;-0.44;54.81
67397;BME280;57728;50.448;18.824;2023-03-01T00:22:27;98941.28;;;-0.28;54.84
67397;BME280;57728;50.448;18.824;2023-03-01T00:24:30;99003.75;;;0.11;54.87
67397;BME280;57728;50.448;18.824;2023-03-01T00:26:31;98940.56;;;-0.30;54.81
67397;BME280;57728;50.448;18.824;2023-03-01T00:28:33;98894.50;;;-0.63;55.06
67397;BME280;57728;50.448;18.824;2023-03-01T00:30:35;99049.41;;;0.29;55.02
67397;BME280;57728;50.448;18.824;2023-03-01T00:32:37;99085.97;;;0.50;55.06
67397;BME280;57728;50.448;18.824;2023-03-01T00:34:38;98880.38;;;-0.75;55.05
67397;BME280;57728;50.448;18.824;2023-03-01T00:36:40;99009.78;;;0.04;55.01
67397;BME280;57728;50.448;18.824;2023-03-01T00:38:44;99044.78;;;0.22;54.89
67397;BME280;57728;50.448;18.824;2023-03-01T00:40:46;99075.78;;;0.44;54.90
67397;BME280;57728;50.448;18.824;2023-03-01T00:42:49;98909.97;;;-0.67;54.89
67397;BME280;57728;50.448;18.824;2023-03-01T00:44:52;99078.59;;;0.42;55.15
67397;BME280;57728;50.448;18.824;2023-03-01T00:46:53;99068.03;;;0.41;55.09
67397;BME280;57728;50.448;18.824;2023-03-01T00:48:55;98994.84;;;0.01;55.05
67397;BME280;57728;50.448;18.824;2023-03-01T00:50:57;99039.13;;;0.15;55.11
67397;BME280;57728;50.448;18.824;2023-03-01T00:53:09;98963.13;;;-0.23;55.09
67397;BME280;57728;50.448;18.824;2023-03-01T00:55:12;98889.28;;;-0.75;55.08
67397;BME280;57728;50.448;18.824;2023-03-01T00:57:14;98996.53;;;-0.08;55.19
67397;BME280;57728;50.448;18.824;2023-03-01T00:59:16;99004.72;;;-0.09;55.38
67397;BME280;57728;50.448;18.824;2023-03-01T01:01:22;98913.50;;;-0.66;55.40
67397;BME280;57728;50.448;18.824;2023-03-01T01:03:28;99051.25;;;0.19;55.39
67397;BME280;57728;50.448;18.824;2023-03-01T01:05:29;99043.19;;;0.09;55.40
67397;BME280;57728;50.448;18.824;2023-03-01T01:07:32;98912.75;;;-0.78;55.49
67397;BME280;57728;50.448;18.824;2023-03-01T01:09:34;99032.63;;;0.08;55.43
67397;BME280;57728;50.448;18.824;2023-03-01T01:11:36;99059.59;;;0.26;55.60
67397;BME280;57728;50.448;18.824;2023-03-01T01:13:39;98905.19;;;-0.73;55.48
67397;BME280;57728;50.448;18.824;2023-03-01T01:15:41;98871.31;;;-1.04;55.63
67397;BME280;57728;50.448;18.824;2023-03-01T01:17:43;98903.72;;;-0.87;55.60
67397;BME280;57728;50.448;18.824;2023-03-01T01:19:45;98988.47;;;-0.27;55.71
67397;BME280;57728;50.448;18.824;2023-03-01T01:21:48;99033.03;;;-0.07;55.62
67397;BME280;57728;50.448;18.824;2023-03-01T01:23:50;98932.47;;;-0.70;55.65
67397;BME280;57728;50.448;18.824;2023-03-01T01:25:53;99052.50;;;0.15;55.95
67397;BME280;57728;50.448;18.824;2023-03-01T01:27:55;98888.97;;;-0.81;55.81
67397;BME280;57728;50.448;18.824;2023-03-01T01:29:59;98894.16;;;-0.90;55.69
67397;BME280;57728;50.448;18.824;2023-03-01T01:32:02;98968.28;;;-0.41;55.88
67397;BME280;57728;50.448;18.824;2023-03-01T01:34:06;98886.56;;;-0.84;55.83
67397;BME280;57728;50.448;18.824;2023-03-01T01:36:10;98966.38;;;-0.29;56.01
67397;BME280;57728;50.448;18.824;2023-03-01T01:38:13;98846.97;;;-1.10;55.95
67397;BME280;57728;50.448;18.824;2023-03-01T01:40:14;98951.13;;;-0.39;56.12
67397;BME280;57728;50.448;18.824;2023-03-01T01:42:17;99044.47;;;0.15;55.88
67397;BME280;57728;50.448;18.824;2023-03-01T01:44:26;98973.97;;;-0.15;55.96
67397;BME280;57728;50.448;18.824;2023-03-01T01:46:32;98976.22;;;-0.20;55.94
67397;BME280;57728;50.448;18.824;2023-03-01T01:48:52;99023.78;;;0.17;56.11
67397;BME280;57728;50.448;18.824;2023-03-01T01:51:00;98921.16;;;-0.42;56.03
67397;BME280;57728;50.448;18.824;2023-03-01T01:53:02;98860.38;;;-0.81;56.00
67397;BME280;57728;50.448;18.824;2023-03-01T01:55:15;99006.41;;;-0.08;55.79
67397;BME280;57728;50.448;18.824;2023-03-01T01:57:29;98980.75;;;-0.11;56.23
67397;BME280;57728;50.448;18.824;2023-03-01T01:59:38;98850.53;;;-0.90;56.13
67397;BME280;57728;50.448;18.824;2023-03-01T02:01:44;98870.25;;;-0.72;56.00
67397;BME280;57728;50.448;18.824;2023-03-01T02:03:50;98967.91;;;-0.17;56.02
67397;BME280;57728;50.448;18.824;2023-03-01T02:06:07;99017.25;;;0.10;56.09
67397;BME280;57728;50.448;18.824;2023-03-01T02:08:19;98978.38;;;-0.14;56.10
67397;BME280;57728;50.448;18.824;2023-03-01T02:10:23;98979.34;;;-0.15;56.10
67397;BME280;57728;50.448;18.824;2023-03-01T02:12:25;98845.75;;;-0.87;56.06
67397;BME280;57728;50.448;18.824;2023-03-01T02:14:27;98970.88;;;-0.10;56.23
67397;BME280;57728;50.448;18.824;2023-03-01T02:16:29;99027.84;;;0.11;56.34
67397;BME280;57728;50.448;18.824;2023-03-01T02:18:31;98868.13;;;-0.78;56.07
67397;BME280;57728;50.448;18.824;2023-03-01T02:23:08;98972.00;;;-0.13;56.08
67397;BME280;57728;50.448;18.824;2023-03-01T02:27:25;98859.97;;;-0.86;56.21
67397;BME280;57728;50.448;18.824;2023-03-01T02:29:47;98822.63;;;-1.07;56.10
67397;BME280;57728;50.448;18.824;2023-03-01T02:31:54;99018.66;;;0.14;56.29
67397;BME280;57728;50.448;18.824;2023-03-01T02:34:02;98977.09;;;-0.20;56.21
67397;BME280;57728;50.448;18.824;2023-03-01T02:36:15;99011.50;;;0.05;56.31
67397;BME280;57728;50.448;18.824;2023-03-01T02:38:23;98852.75;;;-0.95;56.31
67397;BME280;57728;50.448;18.824;2023-03-01T02:40:29;98961.28;;;-0.42;56.46
67397;BME280;57728;50.448;18.824;2023-03-01T02:42:39;98857.94;;;-1.04;56.31
67397;BME280;57728;50.448;18.824;2023-03-01T02:44:50;98796.22;;;-1.51;56.44
67397;BME280;57728;50.448;18.824;2023-03-01T02:46:56;98995.25;;;-0.23;56.31
67397;BME280;57728;50.448;18.824;2023-03-01T02:49:25;98874.16;;;-0.95;56.39
67397;BME280;57728;50.448;18.824;2023-03-01T02:51:50;99025.00;;;-0.07;56.63
67397;BME280;57728;50.448;18.824;2023-03-01T02:56:18;98863.28;;;-1.04;56.43
67397;BME280;57728;50.448;18.824;2023-03-01T02:58:21;99007.66;;;-0.22;56.50
67397;BME280;57728;50.448;18.824;2023-03-01T03:00:28;98863.28;;;-1.04;56.42
67397;BME280;57728;50.448;18.824;2023-03-01T03:02:36;98871.75;;;-0.98;56.21
67397;BME280;57728;50.448;18.824;2023-03-01T03:05:01;98956.47;;;-0.39;56.34
67397;BME280;57728;50.448;18.824;2023-03-01T03:07:04;98798.66;;;-1.38;56.39
67397;BME280;57728;50.448;18.824;2023-03-01T03:09:05;98829.09;;;-1.10;56.48
67397;BME280;57728;50.448;18.824;2023-03-01T03:11:11;98912.09;;;-0.61;56.56
67397;BME280;57728;50.448;18.824;2023-03-01T03:13:14;99015.16;;;0.04;56.52
67397;BME280;57728;50.448;18.824;2023-03-01T03:15:21;98766.44;;;-1.36;56.50
67397;BME280;57728;50.448;18.824;2023-03-01T03:17:26;98799.25;;;-1.15;56.42
67397;BME280;57728;50.448;18.824;2023-03-01T03:19:29;98876.91;;;-0.66;56.40
67397;BME280;57728;50.448;18.824;2023-03-01T03:21:32;98939.59;;;-0.29;56.42
67397;BME280;57728;50.448;18.824;2023-03-01T03:23:38;98861.94;;;-0.78;56.21
67397;BME280;57728;50.448;18.824;2023-03-01T03:25:40;98891.38;;;-0.68;56.35
67397;BME280;57728;50.448;18.824;2023-03-01T03:27:43;98852.50;;;-0.82;56.12
67397;BME280;57728;50.448;18.824;2023-03-01T03:29:46;98914.78;;;-0.41;56.22
67397;BME280;57728;50.448;18.824;2023-03-01T03:31:48;98888.59;;;-0.57;56.35
67397;BME280;57728;50.448;18.824;2023-03-01T03:33:50;99002.06;;;0.10;56.44
67397;BME280;57728;50.448;18.824;2023-03-01T03:35:52;98990.75;;;0.07;56.29
67397;BME280;57728;50.448;18.824;2023-03-01T03:37:53;98911.97;;;-0.40;56.26
67397;BME280;57728;50.448;18.824;2023-03-01T03:40:05;98911.41;;;-0.43;56.31
67397;BME280;57728;50.448;18.824;2023-03-01T03:42:16;98695.09;;;-1.75;56.22
67397;BME280;57728;50.448;18.824;2023-03-01T03:44:18;98920.44;;;-0.35;56.32
67397;BME280;57728;50.448;18.824;2023-03-01T03:46:20;98869.13;;;-0.79;56.21
67397;BME280;57728;50.448;18.824;2023-03-01T03:48:24;98903.66;;;-0.56;56.23
67397;BME280;57728;50.448;18.824;2023-03-01T03:50:26;98929.31;;;-0.44;56.36
67397;BME280;57728;50.448;18.824;2023-03-01T03:52:28;98953.69;;;-0.27;56.52
67397;BME280;57728;50.448;18.824;2023-03-01T03:54:30;98835.59;;;-1.02;56.28
67397;BME280;57728;50.448;18.824;2023-03-01T03:56:31;98865.59;;;-0.79;56.59
67397;BME280;57728;50.448;18.824;2023-03-01T03:58:33;98842.50;;;-1.00;56.40
67397;BME280;57728;50.448;18.824;2023-03-01T04:00:39;98969.19;;;-0.21;56.38
67397;BME280;57728;50.448;18.824;2023-03-01T04:02:42;98877.28;;;-0.90;56.17
67397;BME280;57728;50.448;18.824;2023-03-01T04:04:44;98807.94;;;-1.32;56.38
67397;BME280;57728;50.448;18.824;2023-03-01T04:06:46;98963.25;;;-0.35;56.42
67397;BME280;57728;50.448;18.824;2023-03-01T04:08:49;98866.84;;;-0.93;56.57
67397;BME280;57728;50.448;18.824;2023-03-01T04:10:58;98818.66;;;-1.23;56.40
67397;BME280;57728;50.448;18.824;2023-03-01T04:13:23;98832.31;;;-1.16;56.68
67397;BME280;57728;50.448;18.824;2023-03-01T04:15:27;99003.00;;;-0.20;56.67
67397;BME280;57728;50.448;18.824;2023-03-01T04:17:29;98982.44;;;-0.20;56.72
67397;BME280;57728;50.448;18.824;2023-03-01T04:19:32;98949.00;;;-0.45;56.67
67397;BME280;57728;50.448;18.824;2023-03-01T04:21:36;98983.69;;;-0.24;56.86
67397;BME280;57728;50.448;18.824;2023-03-01T04:23:39;98836.94;;;-1.18;56.78
67397;BME280;57728;50.448;18.824;2023-03-01T04:27:57;98918.84;;;-0.66;56.57
67397;BME280;57728;50.448;18.824;2023-03-01T04:29:58;98792.72;;;-1.42;56.75
67397;BME280;57728;50.448;18.824;2023-03-01T04:32:01;98971.28;;;-0.35;56.68
67397;BME280;57728;50.448;18.824;2023-03-01T04:34:03;98781.88;;;-1.50;56.66
67397;BME280;57728;50.448;18.824;2023-03-01T04:36:05;98783.56;;;-1.49;56.65
67397;BME280;57728;50.448;18.824;2023-03-01T04:38:10;98796.63;;;-1.46;56.81
67397;BME280;57728;50.448;18.824;2023-03-01T04:40:12;98885.41;;;-1.01;56.82
67397;BME280;57728;50.448;18.824;2023-03-01T04:42:17;98817.75;;;-1.43;56.75
67397;BME280;57728;50.448;18.824;2023-03-01T04:44:21;98960.97;;;-0.49;56.65
67397;BME280;57728;50.448;18.824;2023-03-01T04:46:22;98853.44;;;-1.13;56.61
67397;BME280;57728;50.448;18.824;2023-03-01T04:48:24;98980.59;;;-0.29;56.58
67397;BME280;57728;50.448;18.824;2023-03-01T04:50:26;98872.44;;;-0.96;56.62
67397;BME280;57728;50.448;18.824;2023-03-01T04:52:27;98869.09;;;-0.89;56.46
67397;BME280;57728;50.448;18.824;2023-03-01T04:54:33;98967.22;;;-0.19;56.32
67397;BME280;57728;50.448;18.824;2023-03-01T04:56:36;98718.84;;;-1.72;56.33
67397;BME280;57728;50.448;18.824;2023-03-01T04:58:37;98928.03;;;-0.49;56.34
67397;BME280;57728;50.448;18.824;2023-03-01T05:00:39;98977.09;;;-0.10;56.15
67397;BME280;57728;50.448;18.824;2023-03-01T05:02:41;98865.19;;;-0.75;56.06
67397;BME280;57728;50.448;18.824;2023-03-01T05:04:44;98780.13;;;-1.20;55.77
67397;BME280;57728;50.448;18.824;2023-03-01T05:06:45;98918.47;;;-0.32;56.01
67397;BME280;57728;50.448;18.824;2023-03-01T05:08:48;98724.50;;;-1.46;55.75
67397;BME280;57728;50.448;18.824;2023-03-01T05:10:52;98972.31;;;-0.06;55.81
67397;BME280;57728;50.448;18.824;2023-03-01T05:12:56;98961.88;;;0.01;55.83
67397;BME280;57728;50.448;18.824;2023-03-01T05:15:00;98986.25;;;-0.03;55.74
67397;BME280;57728;50.448;18.824;2023-03-01T05:17:07;98817.03;;;-0.94;55.80
67397;BME280;57728;50.448;18.824;2023-03-01T05:19:09;98712.53;;;-1.61;55.69
67397;BME280;57728;50.448;18.824;2023-03-01T05:21:17;98950.59;;;-0.13;55.82
67397;BME280;57728;50.448;18.824;2023-03-01T05:23:20;98960.03;;;-0.09;55.78
67397;BME280;57728;50.448;18.824;2023-03-01T05:25:21;98891.41;;;-0.49;55.54
67397;BME280;57728;50.448;18.824;2023-03-01T05:27:25;98903.94;;;-0.59;55.53
67397;BME280;57728;50.448;18.824;2023-03-01T05:29:28;98789.00;;;-1.10;55.64
67397;BME280;57728;50.448;18.824;2023-03-01T05:31:32;98845.06;;;-0.79;55.51
67397;BME280;57728;50.448;18.824;2023-03-01T05:33:35;98915.78;;;-0.23;55.43
67397;BME280;57728;50.448;18.824;2023-03-01T05:35:42;98973.13;;;0.14;55.31
67397;BME280;57728;50.448;18.824;2023-03-01T05:37:48;98896.06;;;-0.22;55.08
67397;BME280;57728;50.448;18.824;2023-03-01T05:39:50;98981.03;;;0.25;55.05
67397;BME280;57728;50.448;18.824;2023-03-01T05:41:56;98845.50;;;-0.54;54.97
67397;BME280;57728;50.448;18.824;2023-03-01T05:43:59;98940.16;;;0.13;54.89
67397;BME280;57728;50.448;18.824;2023-03-01T05:46:02;98996.56;;;0.41;54.83
67397;BME280;57728;50.448;18.824;2023-03-01T05:48:04;98902.53;;;0.05;54.64
67397;BME280;57728;50.448;18.824;2023-03-01T05:50:06;98932.81;;;0.15;54.62
67397;BME280;57728;50.448;18.824;2023-03-01T05:52:09;98886.19;;;-0.02;54.44
67397;BME280;57728;50.448;18.824;2023-03-01T05:54:11;98904.78;;;0.10;54.34
67397;BME280;57728;50.448;18.824;2023-03-01T05:56:12;98783.00;;;-0.63;54.38
67397;BME280;57728;50.448;18.824;2023-03-01T05:58:18;98935.09;;;0.30;54.43
67397;BME280;57728;50.448;18.824;2023-03-01T06:00:21;98901.28;;;0.09;54.22
67397;BME280;57728;50.448;18.824;2023-03-01T06:02:28;98758.09;;;-0.73;54.09
67397;BME280;57728;50.448;18.824;2023-03-01T06:04:31;98919.72;;;0.22;54.16
67397;BME280;57728;50.448;18.824;2023-03-01T06:06:37;98865.50;;;-0.19;54.19
67397;BME280;57728;50.448;18.824;2023-03-01T06:08:38;98862.38;;;-0.05;53.88
67397;BME280;57728;50.448;18.824;2023-03-01T06:10:41;98971.13;;;0.55;54.04
67397;BME280;57728;50.448;18.824;2023-03-01T06:12:44;98908.44;;;0.28;54.01
67397;BME280;57728;50.448;18.824;2023-03-01T06:14:46;98925.47;;;0.47;53.61
67397;BME280;57728;50.448;18.824;2023-03-01T06:16:52;98807.91;;;-0.23;53.92
67397;BME280;57728;50.448;18.824;2023-03-01T06:18:54;98855.31;;;0.04;53.89
67397;BME280;57728;50.448;18.824;2023-03-01T06:20:56;98952.38;;;0.55;53.84
67397;BME280;57728;50.448;18.824;2023-03-01T06:23:00;98808.44;;;-0.10;53.71
67397;BME280;57728;50.448;18.824;2023-03-01T06:25:04;98901.09;;;0.40;53.51
67397;BME280;57728;50.448;18.824;2023-03-01T06:27:08;98932.88;;;0.73;53.74
67397;BME280;57728;50.448;18.824;2023-03-01T06:29:13;98764.38;;;-0.25;53.62
67397;BME280;57728;50.448;18.824;2023-03-01T06:31:15;98924.25;;;0.79;53.71
67397;BME280;57728;50.448;18.824;2023-03-01T06:33:17;98849.22;;;0.31;53.23
67397;BME280;57728;50.448;18.824;2023-03-01T06:35:21;98783.47;;;-0.01;53.58
67397;BME280;57728;50.448;18.824;2023-03-01T06:37:23;98833.53;;;0.37;53.38
67397;BME280;57728;50.448;18.824;2023-03-01T06:39:27;98916.00;;;0.90;53.43
67397;BME280;57728;50.448;18.824;2023-03-01T06:41:29;98894.91;;;0.77;53.48
67397;BME280;57728;50.448;18.824;2023-03-01T06:43:31;98983.84;;;1.38;53.58
67397;BME280;57728;50.448;18.824;2023-03-01T06:45:33;98880.56;;;0.68;53.38
67397;BME280;57728;50.448;18.824;2023-03-01T06:47:35;98802.41;;;0.36;53.46
67397;BME280;57728;50.448;18.824;2023-03-01T06:49:37;98860.50;;;0.73;53.16
67397;BME280;57728;50.448;18.824;2023-03-01T06:51:38;98904.56;;;0.98;53.07
67397;BME280;57728;50.448;18.824;2023-03-01T06:53:42;98802.91;;;0.49;53.19
67397;BME280;57728;50.448;18.824;2023-03-01T06:55:43;98868.06;;;0.87;53.24
67397;BME280;57728;50.448;18.824;2023-03-01T06:57:45;98930.66;;;1.33;53.05
67397;BME280;57728;50.448;18.824;2023-03-01T06:59:48;98914.56;;;1.33;52.97
67397;BME280;57728;50.448;18.824;2023-03-01T07:01:50;98793.25;;;0.66;52.98
67397;BME280;57728;50.448;18.824;2023-03-01T07:03:51;98877.09;;;1.14;52.76
67397;BME280;57728;50.448;18.824;2023-03-01T07:05:54;98782.91;;;0.71;52.69
67397;BME280;57728;50.448;18.824;2023-03-01T07:07:56;98877.88;;;1.24;52.51
67397;BME280;57728;50.448;18.824;2023-03-01T07:09:57;98940.84;;;1.76;52.26
67397;BME280;57728;50.448;18.824;2023-03-01T07:12:00;98870.38;;;1.28;52.02
67397;BME280;57728;50.448;18.824;2023-03-01T07:14:03;98821.81;;;1.03;52.24
67397;BME280;57728;50.448;18.824;2023-03-01T07:16:05;98903.09;;;1.59;52.08
67397;BME280;57728;50.448;18.824;2023-03-01T07:18:09;98812.31;;;1.09;52.11
67397;BME280;57728;50.448;18.824;2023-03-01T07:20:11;98823.38;;;1.24;51.90
67397;BME280;57728;50.448;18.824;2023-03-01T07:22:12;98916.28;;;1.88;51.87
67397;BME280;57728;50.448;18.824;2023-03-01T07:24:15;98720.66;;;0.77;51.88
67397;BME280;57728;50.448;18.824;2023-03-01T07:26:16;98813.66;;;1.41;51.59
67397;BME280;57728;50.448;18.824;2023-03-01T07:28:18;98777.47;;;1.27;51.60
67397;BME280;57728;50.448;18.824;2023-03-01T07:30:21;98857.31;;;1.79;51.47
67397;BME280;57728;50.448;18.824;2023-03-01T07:32:23;98949.06;;;2.54;51.15
67397;BME280;57728;50.448;18.824;2023-03-01T07:34:24;98907.13;;;2.35;50.98
67397;BME280;57728;50.448;18.824;2023-03-01T07:36:27;98838.00;;;2.01;50.96
67397;BME280;57728;50.448;18.824;2023-03-01T07:38:29;98962.69;;;2.79;50.84
67397;BME280;57728;50.448;18.824;2023-03-01T07:40:31;98779.38;;;1.70;50.83
67397;BME280;57728;50.448;18.824;2023-03-01T07:42:33;98958.91;;;2.90;50.47
67397;BME280;57728;50.448;18.824;2023-03-01T07:44:34;98962.00;;;3.03;50.50
67397;BME280;57728;50.448;18.824;2023-03-01T07:46:36;98824.72;;;2.18;50.70
67397;BME280;57728;50.448;18.824;2023-03-01T07:48:38;98763.56;;;1.94;51.14
67397;BME280;57728;50.448;18.824;2023-03-01T07:50:40;98914.38;;;2.96;51.33
67397;BME280;57728;50.448;18.824;2023-03-01T07:52:41;98847.44;;;2.58;51.27
67397;BME280;57728;50.448;18.824;2023-03-01T07:54:43;98967.91;;;3.41;51.36
67397;BME280;57728;50.448;18.824;2023-03-01T07:56:45;98969.28;;;3.46;51.29
67397;BME280;57728;50.448;18.824;2023-03-01T07:58:47;98858.31;;;2.83;51.31
67397;BME280;57728;50.448;18.824;2023-03-01T08:00:49;98962.91;;;3.55;51.28
67397;BME280;57728;50.448;18.824;2023-03-01T08:02:51;98794.00;;;2.55;50.75
67397;BME280;57728;50.448;18.824;2023-03-01T08:04:52;98932.94;;;3.50;50.53
67397;BME280;57728;50.448;18.824;2023-03-01T08:06:55;98932.56;;;3.44;50.26
67397;BME280;57728;50.448;18.824;2023-03-01T08:08:56;98809.59;;;2.86;50.28
67397;BME280;57728;50.448;18.824;2023-03-01T08:11:00;98781.38;;;2.90;50.00
67397;BME280;57728;50.448;18.824;2023-03-01T08:13:03;98903.53;;;3.73;49.39
67397;BME280;57728;50.448;18.824;2023-03-01T08:15:05;98877.44;;;3.65;49.31
67397;BME280;57728;50.448;18.824;2023-03-01T08:17:08;98946.22;;;4.10;48.96
67397;BME280;57728;50.448;18.824;2023-03-01T08:19:11;98944.69;;;4.16;48.77
67397;BME280;57728;50.448;18.824;2023-03-01T08:21:16;98854.88;;;3.74;48.36
67397;BME280;57728;50.448;18.824;2023-03-01T08:23:19;98886.91;;;4.10;48.01
67397;BME280;57728;50.448;18.824;2023-03-01T08:25:21;98958.34;;;4.64;47.64
67397;BME280;57728;50.448;18.824;2023-03-01T08:27:22;98800.03;;;3.92;47.70
67397;BME280;57728;50.448;18.824;2023-03-01T08:29:24;98782.66;;;4.03;47.19
67397;BME280;57728;50.448;18.824;2023-03-01T08:31:32;98800.66;;;4.19;47.53
67397;BME280;57728;50.448;18.824;2023-03-01T08:33:36;98911.84;;;5.10;47.27
67397;BME280;57728;50.448;18.824;2023-03-01T08:35:37;98822.78;;;4.62;46.49
67397;BME280;57728;50.448;18.824;2023-03-01T08:37:40;98931.75;;;5.57;46.30
67397;BME280;57728;50.448;18.824;2023-03-01T08:39:41;98931.25;;;5.84;46.62
67397;BME280;57728;50.448;18.824;2023-03-01T08:41:42;98817.09;;;5.59;45.58
67397;BME280;57728;50.448;18.824;2023-03-01T08:43:45;98864.19;;;6.49;45.05
67397;BME280;57728;50.448;18.824;2023-03-01T08:45:48;98934.13;;;7.65;44.69
67397;BME280;57728;50.448;18.824;2023-03-01T08:47:52;98913.13;;;8.54;44.12
67397;BME280;57728;50.448;18.824;2023-03-01T08:49:55;98882.66;;;9.15;42.75
67397;BME280;57728;50.448;18.824;2023-03-01T08:51:56;98933.63;;;10.23;41.73
67397;BME280;57728;50.448;18.824;2023-03-01T08:53:58;98929.50;;;11.08;41.58
67397;BME280;57728;50.448;18.824;2023-03-01T08:56:00;98914.53;;;11.96;40.57
67397;BME280;57728;50.448;18.824;2023-03-01T08:58:03;98838.91;;;12.35;39.22
67397;BME280;57728;50.448;18.824;2023-03-01T09:00:05;98869.47;;;13.13;37.76
67397;BME280;57728;50.448;18.824;2023-03-01T09:02:16;98804.16;;;13.04;37.21
67397;BME280;57728;50.448;18.824;2023-03-01T09:04:18;98766.31;;;13.20;36.44
67397;BME280;57728;50.448;18.824;2023-03-01T09:06:20;98780.28;;;13.49;35.91
67397;BME280;57728;50.448;18.824;2023-03-01T09:08:23;98865.88;;;14.28;35.04
67397;BME280;57728;50.448;18.824;2023-03-01T09:10:24;98728.88;;;13.81;34.46
67397;BME280;57728;50.448;18.824;2023-03-01T09:12:26;98853.72;;;14.90;33.88
67397;BME280;57728;50.448;18.824;2023-03-01T09:14:29;98844.72;;;15.07;33.43
67397;BME280;57728;50.448;18.824;2023-03-01T09:16:30;98906.78;;;15.60;32.10
67397;BME280;57728;50.448;18.824;2023-03-01T09:18:36;98917.41;;;15.69;32.30
67397;BME280;57728;50.448;18.824;2023-03-01T09:20:40;98820.38;;;15.34;31.57
67397;BME280;57728;50.448;18.824;2023-03-01T09:22:42;98907.88;;;16.00;30.74
67397;BME280;57728;50.448;18.824;2023-03-01T09:24:44;98905.94;;;16.12;30.78
67397;BME280;57728;50.448;18.824;2023-03-01T09:26:47;98768.72;;;15.31;30.33
67397;BME280;57728;50.448;18.824;2023-03-01T09:28:52;98717.00;;;15.23;30.12
67397;BME280;57728;50.448;18.824;2023-03-01T09:30:58;98855.50;;;16.36;29.20
67397;BME280;57728;50.448;18.824;2023-03-01T09:33:01;98889.34;;;16.70;28.80
67397;BME280;57728;50.448;18.824;2023-03-01T09:35:03;98895.81;;;16.81;29.16
67397;BME280;57728;50.448;18.824;2023-03-01T09:37:05;98785.72;;;16.54;28.74
67397;BME280;57728;50.448;18.824;2023-03-01T09:39:07;98798.38;;;16.89;28.10
67397;BME280;57728;50.448;18.824;2023-03-01T09:43:48;98896.94;;;18.25;28.13
67397;BME280;57728;50.448;18.824;2023-03-01T09:46:06;98812.22;;;18.10;27.07
67397;BME280;57728;50.448;18.824;2023-03-01T09:48:18;98842.63;;;18.58;27.06
67397;BME280;57728;50.448;18.824;2023-03-01T09:50:30;98763.84;;;18.29;26.27
67397;BME280;57728;50.448;18.824;2023-03-01T09:52:48;98897.38;;;19.51;26.17
67397;BME280;57728;50.448;18.824;2023-03-01T09:54:56;98775.75;;;19.20;25.46
67397;BME280;57728;50.448;18.824;2023-03-01T09:59:36;98872.78;;;20.28;24.92
67397;BME280;57728;50.448;18.824;2023-03-01T10:09:34;98785.06;;;20.91;23.38
67397;BME280;57728;50.448;18.824;2023-03-01T10:11:45;98884.28;;;21.70;22.72
67397;BME280;57728;50.448;18.824;2023-03-01T10:14:09;98882.53;;;21.89;22.82
67397;BME280;57728;50.448;18.824;2023-03-01T10:16:34;98883.91;;;21.92;22.61
67397;BME280;57728;50.448;18.824;2023-03-01T10:18:58;98739.41;;;20.99;22.30
67397;BME280;57728;50.448;18.824;2023-03-01T10:21:15;98836.56;;;21.78;22.38
67397;BME280;57728;50.448;18.824;2023-03-01T10:23:23;98880.16;;;22.17;22.18
67397;BME280;57728;50.448;18.824;2023-03-01T10:27:54;98863.13;;;21.94;21.57
67397;BME280;57728;50.448;18.824;2023-03-01T10:30:32;98831.84;;;21.78;21.35
67397;BME280;57728;50.448;18.824;2023-03-01T10:32:40;98841.59;;;21.71;21.27
67397;BME280;57728;50.448;18.824;2023-03-01T10:34:41;98884.13;;;22.06;21.36
67397;BME280;57728;50.448;18.824;2023-03-01T10:36:48;98882.38;;;22.15;20.79
67397;BME280;57728;50.448;18.824;2023-03-01T10:38:56;98875.47;;;22.12;20.55
67397;BME280;57728;50.448;18.824;2023-03-01T10:41:05;98879.91;;;22.13;20.89
67397;BME280;57728;50.448;18.824;2023-03-01T10:43:11;98881.22;;;22.26;20.67
67397;BME280;57728;50.448;18.824;2023-03-01T10:47:30;98816.50;;;21.96;20.36
67397;BME280;57728;50.448;18.824;2023-03-01T10:49:32;98863.09;;;22.44;20.48
67397;BME280;57728;50.448;18.824;2023-03-01T10:51:34;98814.13;;;22.19;20.22
67397;BME280;57728;50.448;18.824;2023-03-01T10:53:47;98857.56;;;22.39;20.13
67397;BME280;57728;50.448;18.824;2023-03-01T10:56:09;98713.44;;;21.44;19.74
67397;BME280;57728;50.448;18.824;2023-03-01T10:58:18;98854.41;;;22.11;20.00
67397;BME280;57728;50.448;18.824;2023-03-01T11:00:25;98815.69;;;21.96;19.88
67397;BME280;57728;50.448;18.824;2023-03-01T11:02:31;98821.88;;;22.22;20.00
67397;BME280;57728;50.448;18.824;2023-03-01T11:04:35;98858.97;;;22.37;19.34
67397;BME280;57728;50.448;18.824;2023-03-01T11:06:39;98845.06;;;22.42;19.08
67397;BME280;57728;50.448;18.824;2023-03-01T11:08:45;98835.53;;;22.53;19.44
67397;BME280;57728;50.448;18.824;2023-03-01T11:10:49;98802.94;;;22.40;19.62
67397;BME280;57728;50.448;18.824;2023-03-01T11:12:52;98723.31;;;22.06;19.42
67397;BME280;57728;50.448;18.824;2023-03-01T11:14:54;98839.13;;;22.88;19.36
67397;BME280;57728;50.448;18.824;2023-03-01T11:17:25;98747.06;;;22.52;19.19
67397;BME280;57728;50.448;18.824;2023-03-01T11:19:30;98828.63;;;23.09;19.22
67397;BME280;57728;50.448;18.824;2023-03-01T11:21:43;98826.59;;;23.20;19.33